Time;durP1;ratioP1;P1;durP2;ratioP2;P2;SDS_P1;SDS_P2;PMS_P1;PMS_P2;Temp;Humidity;BMP_temperature;BMP_pressure;BME280_temperature;BME280_humidity;BME280_pressure;Samples;Min_cycle;Max_cycle;Signal;HPM_P1;HPM_P2
2023/12/12 00:01:54;;;;;;;0.30;0.30;;;;;;;4.81;96.08;94350.25;5006458;28;20204;-77
2023/12/12 00:04:21;;;;;;;1.35;0.63;;;;;;;4.73;95.28;94332.16;5030121;28;20205;-78
2023/12/12 00:06:47;;;;;;;0.55;0.52;;;;;;;4.82;95.73;94326.88;5019013;28;20216;-77
2023/12/12 00:09:14;;;;;;;0.60;0.60;;;;;;;4.73;96.00;94316.06;5011387;28;20216;-79
2023/12/12 00:11:41;;;;;;;1.08;0.63;;;;;;;4.80;95.81;94316.44;5011947;28;20232;-79
2023/12/12 00:14:08;;;;;;;0.50;0.50;;;;;;;4.91;95.59;94317.06;5018029;28;20208;-77
2023/12/12 00:16:36;;;;;;;1.60;1.50;;;;;;;4.78;95.93;94318.66;5018870;28;20209;-76
2023/12/12 00:19:03;;;;;;;0.90;0.90;;;;;;;4.72;97.21;94324.41;5021308;28;20259;-77
2023/12/12 00:21:30;;;;;;;0.70;0.70;;;;;;;4.97;97.89;94311.28;5031336;28;20207;-77
2023/12/12 00:23:57;;;;;;;0.25;0.25;;;;;;;4.72;96.75;94295.69;5029198;28;20208;-77
2023/12/12 00:26:24;;;;;;;5.82;1.00;;;;;;;4.73;97.00;94321.44;5017354;28;20670;-77
2023/12/12 00:28:51;;;;;;;4.05;1.08;;;;;;;5.03;98.09;94335.34;5018427;28;20204;-77
2023/12/12 00:31:18;;;;;;;0.20;0.20;;;;;;;4.75;96.32;94321.94;5017977;28;20224;-77
2023/12/12 00:33:46;;;;;;;0.60;0.60;;;;;;;4.94;96.67;94336.03;5030484;28;20219;-75
2023/12/12 00:36:13;;;;;;;0.25;0.25;;;;;;;5.03;97.02;94340.72;5029595;28;20208;-76
2023/12/12 00:38:39;;;;;;;0.55;0.55;;;;;;;4.81;96.81;94323.41;5013461;28;20225;-77
2023/12/12 00:41:07;;;;;;;0.35;0.35;;;;;;;5.03;97.52;94329.97;5016429;28;20271;-77
2023/12/12 00:43:34;;;;;;;0.20;0.20;;;;;;;5.08;96.84;94332.53;5019904;28;20913;-76
2023/12/12 00:46:01;;;;;;;1.85;1.27;;;;;;;5.20;97.22;94348.91;5031224;28;20211;-76
2023/12/12 00:48:28;;;;;;;1.02;0.68;;;;;;;5.17;96.62;94347.66;5022511;28;20208;-77
2023/12/12 00:50:56;;;;;;;0.28;0.28;;;;;;;4.93;97.17;94336.31;5018069;28;20228;-75
2023/12/12 00:53:23;;;;;;;0.30;0.30;;;;;;;5.07;97.12;94314.84;5021804;28;20237;-79
2023/12/12 00:55:50;;;;;;;0.45;0.45;;;;;;;5.08;97.30;94321.78;5011476;28;20767;-79
2023/12/12 00:58:16;;;;;;;0.22;0.22;;;;;;;4.83;97.24;94337.31;5011169;28;20213;-76
2023/12/12 01:00:43;;;;;;;1.38;0.90;;;;;;;4.56;98.04;94342.69;5010866;28;20205;-80
2023/12/12 01:03:10;;;;;;;0.50;0.50;;;;;;;4.38;99.26;94346.22;5011024;28;20221;-79
2023/12/12 01:05:37;;;;;;;1.20;0.88;;;;;;;4.44;99.59;94334.31;5011346;28;20220;-78
2023/12/12 01:08:05;;;;;;;1.30;1.23;;;;;;;4.53;99.48;94327.97;5010747;28;20205;-79
2023/12/12 01:10:32;;;;;;;0.22;0.22;;;;;;;4.42;99.51;94348.03;5011012;28;20235;-80
2023/12/12 01:13:00;;;;;;;0.32;0.32;;;;;;;4.38;100.00;94356.94;5010791;28;20220;-81
2023/12/12 01:15:27;;;;;;;0.20;0.20;;;;;;;4.53;100.00;94343.25;5010685;28;20216;-80
2023/12/12 01:17:54;;;;;;;0.77;0.77;;;;;;;4.63;100.00;94359.19;5020557;28;20220;-79
2023/12/12 01:20:21;;;;;;;0.10;0.10;;;;;;;4.67;99.69;94354.81;5017730;28;20213;-79
2023/12/12 01:22:47;;;;;;;0.22;0.22;;;;;;;4.89;99.77;94368.34;5011178;28;20212;-79
2023/12/12 01:25:16;;;;;;;0.20;0.20;;;;;;;5.10;99.15;94362.56;5023762;28;20224;-76
2023/12/12 01:27:43;;;;;;;0.85;0.85;;;;;;;5.15;98.70;94343.69;5011125;28;20553;-78
2023/12/12 01:30:11;;;;;;;0.28;0.28;;;;;;;5.10;97.83;94352.63;5010455;28;20219;-78
2023/12/12 01:32:38;;;;;;;0.35;0.35;;;;;;;4.99;98.11;94362.78;5010959;28;20233;-79
2023/12/12 01:35:05;;;;;;;0.40;0.40;;;;;;;4.95;98.60;94367.13;5046864;28;20291;-78
2023/12/12 01:37:32;;;;;;;0.85;0.85;;;;;;;5.10;98.49;94352.63;5026340;28;20263;-79
2023/12/12 01:39:59;;;;;;;0.30;0.30;;;;;;;5.03;98.49;94368.34;5017766;28;20216;-79
2023/12/12 01:42:27;;;;;;;0.68;0.68;;;;;;;5.23;97.94;94340.28;5010553;28;20209;-78
2023/12/12 01:44:54;;;;;;;0.57;0.57;;;;;;;5.29;97.72;94333.72;5010376;28;20217;-79
2023/12/12 01:47:21;;;;;;;1.45;1.13;;;;;;;5.22;97.88;94336.78;5010244;28;20220;-78
2023/12/12 01:49:48;;;;;;;9.63;1.42;;;;;;;5.38;97.25;94323.84;5010673;28;20209;-78
2023/12/12 01:52:16;;;;;;;1.35;1.02;;;;;;;5.47;96.83;94308.59;5010445;28;20240;-79
2023/12/12 01:54:48;;;;;;;0.50;0.50;;;;;;;5.48;95.49;94320.91;5009744;28;20256;-77
2023/12/12 01:57:17;;;;;;;0.25;0.25;;;;;;;4.95;97.11;94332.25;5011003;28;20279;-79
2023/12/12 01:59:46;;;;;;;0.45;0.45;;;;;;;4.77;98.48;94322.44;5010459;28;20213;-78
2023/12/12 02:02:17;;;;;;;0.57;0.57;;;;;;;4.64;99.68;94329.38;5011039;28;20216;-79
2023/12/12 02:04:44;;;;;;;1.02;0.93;;;;;;;4.42;100.00;94328.44;5011762;28;20693;-78
2023/12/12 02:07:14;;;;;;;1.00;1.00;;;;;;;4.49;100.00;94340.41;5011137;28;20216;-79
2023/12/12 02:09:42;;;;;;;2.65;1.80;;;;;;;4.29;100.00;94348.78;5010044;28;20233;-79
2023/12/12 02:12:08;;;;;;;1.30;1.27;;;;;;;4.21;100.00;94342.22;5010259;28;20236;-80
2023/12/12 02:14:37;;;;;;;1.00;1.00;;;;;;;4.39;100.00;94363.91;5010809;28;20212;-80
2023/12/12 02:17:06;;;;;;;0.35;0.35;;;;;;;4.33;100.00;94359.72;5023429;28;20708;-82
2023/12/12 02:19:32;;;;;;;0.98;0.98;;;;;;;3.93;100.00;94356.63;5010474;28;20213;-80
2023/12/12 02:22:02;;;;;;;0.52;0.52;;;;;;;3.96;100.00;94345.34;5010069;28;20633;-78
2023/12/12 02:24:29;;;;;;;0.50;0.50;;;;;;;3.98;100.00;94355.75;5010620;28;20205;-80
2023/12/12 02:26:56;;;;;;;1.35;1.25;;;;;;;3.96;100.00;94358.75;5010922;28;20213;-81
2023/12/12 02:29:24;;;;;;;8.43;5.30;;;;;;;3.86;100.00;94365.03;5010515;28;20282;-80
2023/12/12 02:31:51;;;;;;;8.68;4.25;;;;;;;3.89;100.00;94374.38;5011879;28;20225;-79
2023/12/12 02:34:18;;;;;;;8.70;4.47;;;;;;;3.91;100.00;94364.16;5021394;28;20216;-78
2023/12/12 02:36:45;;;;;;;11.30;4.60;;;;;;;3.77;100.00;94372.16;5011106;28;20315;-80
2023/12/12 02:39:14;;;;;;;9.85;4.07;;;;;;;3.77;100.00;94374.84;5016736;28;20726;-79
2023/12/12 02:41:40;;;;;;;10.70;3.80;;;;;;;3.79;100.00;94393.28;5010305;28;20221;-79
2023/12/12 02:44:07;;;;;;;0.35;0.35;;;;;;;4.07;100.00;94389.66;5009958;28;20637;-78
2023/12/12 02:46:35;;;;;;;0.50;0.50;;;;;;;4.10;100.00;94399.75;5009839;28;20205;-78
2023/12/12 02:49:02;;;;;;;0.77;0.77;;;;;;;4.17;100.00;94410.91;5013226;28;20208;-79
2023/12/12 02:51:29;;;;;;;0.55;0.55;;;;;;;4.43;100.00;94399.75;5013468;28;20291;-79
2023/12/12 02:53:56;;;;;;;0.40;0.40;;;;;;;4.53;100.00;94407.63;5013736;28;20240;-80
2023/12/12 02:56:24;;;;;;;1.65;1.40;;;;;;;4.69;100.00;94403.59;5025934;28;20216;-77
2023/12/12 02:58:51;;;;;;;1.05;1.05;;;;;;;4.81;100.00;94403.91;5031177;28;20213;-78
2023/12/12 03:01:18;;;;;;;1.17;0.77;;;;;;;4.76;100.00;94393.28;5034693;28;20204;-77
2023/12/12 03:03:45;;;;;;;0.85;0.85;;;;;;;4.52;100.00;94363.13;5013353;28;20205;-74
2023/12/12 03:06:11;;;;;;;0.65;0.65;;;;;;;4.52;100.00;94361.25;5012768;28;20255;-75
2023/12/12 03:08:38;;;;;;;3.25;1.65;;;;;;;4.43;100.00;94371.06;5013083;28;20308;-75
2023/12/12 03:11:05;;;;;;;0.28;0.28;;;;;;;4.44;100.00;94371.88;5012940;28;20597;-75
2023/12/12 03:13:34;;;;;;;1.38;1.20;;;;;;;4.61;100.00;94345.28;5012603;28;20340;-76
2023/12/12 03:16:01;;;;;;;1.85;1.75;;;;;;;4.58;100.00;94345.88;5013175;28;20224;-75
2023/12/12 03:18:27;;;;;;;0.30;0.30;;;;;;;4.19;100.00;94347.09;5013413;28;20670;-74
2023/12/12 03:20:54;;;;;;;0.30;0.30;;;;;;;4.35;100.00;94347.63;5020216;28;20311;-76
2023/12/12 03:23:22;;;;;;;0.47;0.47;;;;;;;4.14;100.00;94347.16;5018373;28;20610;-74
2023/12/12 03:25:48;;;;;;;0.52;0.52;;;;;;;3.97;100.00;94346.91;5012585;28;20212;-74
2023/12/12 03:28:15;;;;;;;2.60;1.70;;;;;;;3.79;100.00;94359.28;5012860;28;20565;-75
2023/12/12 03:30:43;;;;;;;0.77;0.77;;;;;;;3.58;100.00;94361.44;5012511;28;20213;-76
2023/12/12 03:33:10;;;;;;;0.40;0.40;;;;;;;3.43;100.00;94358.97;5027023;28;20220;-75
2023/12/12 03:35:37;;;;;;;0.30;0.30;;;;;;;3.52;100.00;94361.81;5032296;28;20208;-75
2023/12/12 03:38:04;;;;;;;2.85;0.55;;;;;;;3.55;100.00;94353.22;5031966;28;20223;-77
2023/12/12 03:40:31;;;;;;;0.75;0.75;;;;;;;3.52;100.00;94346.53;5022197;28;20213;-76
2023/12/12 03:42:58;;;;;;;0.30;0.30;;;;;;;3.54;100.00;94344.38;5012210;28;20255;-76
2023/12/12 03:45:24;;;;;;;0.32;0.32;;;;;;;3.49;100.00;94352.47;5012309;28;20279;-76
2023/12/12 03:47:53;;;;;;;0.47;0.47;;;;;;;3.48;100.00;94361.59;5015940;28;20215;-76
2023/12/12 03:50:20;;;;;;;0.43;0.43;;;;;;;3.31;100.00;94365.84;5021038;28;20358;-75
2023/12/12 03:52:47;;;;;;;0.57;0.57;;;;;;;3.28;100.00;94383.28;5012058;28;20792;-75
2023/12/12 03:55:15;;;;;;;0.30;0.30;;;;;;;3.40;100.00;94375.63;5012192;28;20208;-76
2023/12/12 03:57:41;;;;;;;1.55;1.10;;;;;;;3.40;100.00;94369.47;5029474;28;20212;-76
2023/12/12 04:00:10;;;;;;;0.40;0.40;;;;;;;3.48;100.00;94372.31;5020033;28;20222;-76
2023/12/12 04:02:37;;;;;;;0.20;0.20;;;;;;;3.53;100.00;94364.22;5011804;28;20240;-74
2023/12/12 04:05:09;;;;;;;1.05;0.98;;;;;;;3.74;100.00;94356.66;5012401;28;20209;-80
2023/12/12 04:07:36;;;;;;;0.30;0.30;;;;;;;3.74;100.00;94358.53;5012310;28;20525;-77
2023/12/12 04:10:05;;;;;;;0.20;0.20;;;;;;;3.49;100.00;94367.75;5012624;28;20566;-79
2023/12/12 04:12:31;;;;;;;0.55;0.55;;;;;;;3.57;100.00;94385.81;5013132;28;20236;-77
2023/12/12 04:14:58;;;;;;;0.20;0.20;;;;;;;8.15;100.00;94367.03;5013816;28;20235;-77
2023/12/12 04:17:25;;;;;;;0.28;0.28;;;;;;;7.05;100.00;94368.13;5032288;28;20216;-77
2023/12/12 04:19:52;;;;;;;0.40;0.40;;;;;;;5.68;100.00;94384.16;5032413;28;20235;-80
2023/12/12 04:22:20;;;;;;;0.40;0.40;;;;;;;5.31;100.00;94391.41;5031694;28;20208;-79
2023/12/12 04:24:47;;;;;;;0.30;0.30;;;;;;;4.96;100.00;94390.19;5017940;28;20221;-80
2023/12/12 04:27:14;;;;;;;0.45;0.45;;;;;;;4.67;100.00;94400.41;5023705;28;20204;-79
2023/12/12 04:29:41;;;;;;;0.50;0.50;;;;;;;4.83;100.00;94404.41;5019388;28;20255;-79
2023/12/12 04:32:08;;;;;;;0.30;0.30;;;;;;;4.53;100.00;94391.53;5030305;28;20314;-79
2023/12/12 04:34:34;;;;;;;0.52;0.52;;;;;;;4.67;100.00;94399.59;5012992;28;20212;-80
2023/12/12 04:37:02;;;;;;;0.30;0.30;;;;;;;4.74;100.00;94408.88;5028515;28;20687;-79
2023/12/12 04:39:31;;;;;;;0.57;0.57;;;;;;;4.63;100.00;94400.22;5028362;28;20208;-76
2023/12/12 04:41:57;;;;;;;0.30;0.30;;;;;;;4.79;100.00;94406.09;5028852;28;20208;-77
2023/12/12 04:44:24;;;;;;;0.52;0.52;;;;;;;4.86;100.00;94406.50;5030151;28;20208;-78
2023/12/12 04:46:51;;;;;;;1.75;0.82;;;;;;;5.04;100.00;94401.34;5029807;28;20208;-79
2023/12/12 04:49:19;;;;;;;1.65;1.55;;;;;;;4.88;100.00;94415.06;5027011;28;20226;-77
2023/12/12 04:51:46;;;;;;;0.85;0.85;;;;;;;4.89;100.00;94410.50;5030399;28;20230;-79
2023/12/12 04:54:13;;;;;;;2.20;1.50;;;;;;;5.05;100.00;94416.38;5026254;28;20715;-80
2023/12/12 04:56:41;;;;;;;0.22;0.22;;;;;;;5.12;100.00;94411.38;5033034;28;20282;-79
2023/12/12 04:59:08;;;;;;;0.30;0.30;;;;;;;5.30;100.00;94410.50;5028697;28;20209;-79
2023/12/12 05:01:35;;;;;;;0.20;0.20;;;;;;;5.39;99.51;94416.75;5030039;28;20208;-79
2023/12/12 05:04:02;;;;;;;0.20;0.20;;;;;;;5.54;99.15;94416.44;5026345;28;20204;-78
2023/12/12 05:06:28;;;;;;;2.13;1.92;;;;;;;5.31;99.30;94428.19;5030085;28;20588;-77
2023/12/12 05:08:59;;;;;;;0.28;0.28;;;;;;;5.15;99.09;94419.66;5006426;28;20283;-79
2023/12/12 05:11:26;;;;;;;1.45;1.35;;;;;;;5.18;99.18;94420.94;5025830;28;20219;-79
2023/12/12 05:13:54;;;;;;;0.65;0.65;;;;;;;5.26;99.20;94436.34;5030195;28;20286;-80
2023/12/12 05:16:21;;;;;;;1.38;1.17;;;;;;;6.87;100.00;94435.66;5018610;28;20685;-78
2023/12/12 05:18:47;;;;;;;1.77;1.08;;;;;;;8.86;100.00;94438.44;5011256;28;20216;-78
2023/12/12 05:21:16;;;;;;;1.30;1.20;;;;;;;10.48;100.00;94417.41;5011116;28;20617;-78
2023/12/12 05:23:44;;;;;;;1.08;1.05;;;;;;;10.64;94.81;94421.88;5010059;28;20213;-83
2023/12/12 05:26:11;;;;;;;6.47;1.88;;;;;;;8.58;84.27;94429.09;5010398;28;20216;-79
2023/12/12 05:28:38;;;;;;;0.30;0.30;;;;;;;7.49;88.59;94439.13;5010734;28;20232;-79
2023/12/12 05:31:06;;;;;;;0.77;0.77;;;;;;;6.75;90.57;94433.56;5010997;28;20255;-78
2023/12/12 05:33:36;;;;;;;0.85;0.85;;;;;;;6.48;91.92;94433.69;5016810;28;20232;-78
2023/12/12 05:36:05;;;;;;;0.38;0.38;;;;;;;6.22;93.78;94437.00;5030656;28;20227;-79
2023/12/12 05:38:31;;;;;;;0.30;0.30;;;;;;;6.30;93.36;94433.56;5040205;28;20215;-79
2023/12/12 05:40:58;;;;;;;0.47;0.47;;;;;;;6.20;93.65;94422.25;5038261;28;20208;-80
2023/12/12 05:43:25;;;;;;;2.60;0.95;;;;;;;6.22;92.84;94425.44;5041097;28;20203;-79
2023/12/12 05:45:52;;;;;;;2.50;2.00;;;;;;;5.72;93.60;94428.94;5023814;28;20204;-79
2023/12/12 05:48:20;;;;;;;0.47;0.47;;;;;;;5.47;95.03;94448.25;5010218;28;20200;-79
2023/12/12 05:50:48;;;;;;;0.50;0.50;;;;;;;5.21;96.81;94452.53;5026732;28;20203;-79
2023/12/12 05:53:15;;;;;;;0.20;0.20;;;;;;;5.25;97.22;94456.22;5017699;28;20244;-83
2023/12/12 05:55:42;;;;;;;0.50;0.50;;;;;;;5.08;98.32;94461.38;5030200;28;20290;-83
2023/12/12 05:58:09;;;;;;;0.63;0.55;;;;;;;5.10;98.25;94453.84;5032132;28;20260;-82
2023/12/12 06:00:35;;;;;;;1.50;0.88;;;;;;;5.17;98.42;94448.88;5018984;28;20214;-80
2023/12/12 06:03:03;;;;;;;0.35;0.35;;;;;;;5.40;98.73;94455.94;5028002;28;20556;-78
2023/12/12 06:05:31;;;;;;;1.73;1.10;;;;;;;5.59;98.84;94455.84;5010393;28;20300;-79
2023/12/12 06:07:57;;;;;;;0.40;0.40;;;;;;;5.55;98.08;94452.94;5017686;28;20220;-79
2023/12/12 06:10:27;;;;;;;0.35;0.35;;;;;;;5.86;97.08;94465.75;5024699;28;20277;-79
2023/12/12 06:12:54;;;;;;;0.63;0.63;;;;;;;5.77;96.91;94454.09;5021784;28;20241;-78
2023/12/12 06:15:21;;;;;;;0.32;0.32;;;;;;;5.70;97.15;94447.25;5010385;28;20204;-79
2023/12/12 06:17:48;;;;;;;1.98;1.48;;;;;;;5.69;97.18;94439.50;5010520;28;20209;-79
2023/12/12 06:20:14;;;;;;;1.98;0.60;;;;;;;6.06;96.97;94443.81;5010294;28;20275;-79
2023/12/12 06:22:43;;;;;;;1.98;1.02;;;;;;;5.96;95.86;94449.44;5027455;28;20567;-79
2023/12/12 06:25:10;;;;;;;0.45;0.45;;;;;;;6.14;94.95;94447.69;5040341;28;20276;-79
2023/12/12 06:27:37;;;;;;;0.88;0.55;;;;;;;5.96;94.52;94435.97;5024976;28;20639;-80
2023/12/12 06:30:05;;;;;;;0.40;0.40;;;;;;;5.79;94.59;94433.09;5013956;28;20649;-79
2023/12/12 06:32:32;;;;;;;0.68;0.68;;;;;;;6.04;94.19;94437.94;5013559;28;20219;-80
2023/12/12 06:35:00;;;;;;;0.25;0.25;;;;;;;6.09;93.47;94435.16;5031983;28;20299;-78
2023/12/12 06:37:27;;;;;;;0.52;0.52;;;;;;;5.59;93.73;94435.13;5031692;28;20256;-78
2023/12/12 06:39:55;;;;;;;0.35;0.35;;;;;;;5.49;94.32;94434.53;5028410;28;20279;-78
2023/12/12 06:42:22;;;;;;;0.40;0.40;;;;;;;5.42;94.86;94423.41;5023578;28;20192;-79
2023/12/12 06:44:48;;;;;;;0.60;0.60;;;;;;;5.41;95.20;94436.03;5033386;28;20296;-79
2023/12/12 06:47:15;;;;;;;0.28;0.28;;;;;;;5.39;95.45;94446.28;5046579;28;20229;-78
2023/12/12 06:49:42;;;;;;;0.30;0.30;;;;;;;5.56;95.65;94445.69;5014686;28;20696;-78
2023/12/12 06:52:09;;;;;;;0.20;0.20;;;;;;;5.90;94.57;94456.00;5014645;28;20617;-82
2023/12/12 06:54:36;;;;;;;1.10;1.10;;;;;;;6.03;93.88;94465.91;5013860;28;20713;-83
2023/12/12 06:57:04;;;;;;;0.35;0.35;;;;;;;6.31;93.06;94478.19;5014929;28;20221;-85
2023/12/12 06:59:31;;;;;;;1.85;1.05;;;;;;;6.49;91.55;94484.50;5013746;28;20216;-82
2023/12/12 07:01:58;;;;;;;0.22;0.22;;;;;;;6.59;91.35;94478.09;5014045;28;20217;-81
2023/12/12 07:04:25;;;;;;;1.00;1.00;;;;;;;6.64;90.00;94477.97;5015443;28;20229;-83
2023/12/12 07:06:52;;;;;;;0.60;0.60;;;;;;;7.13;88.75;94477.00;5026769;28;20242;-82
2023/12/12 07:09:19;;;;;;;0.38;0.38;;;;;;;7.46;88.24;94486.34;5034632;28;20661;-82
2023/12/12 07:11:45;;;;;;;0.47;0.47;;;;;;;7.71;87.22;94482.16;5026260;28;20213;-83
2023/12/12 07:14:14;;;;;;;0.60;0.60;;;;;;;8.02;85.23;94478.59;5013760;28;20534;-85
2023/12/12 07:16:40;;;;;;;1.00;0.85;;;;;;;8.35;83.76;94479.75;5013661;28;20205;-82
2023/12/12 07:19:08;;;;;;;0.47;0.47;;;;;;;8.29;83.37;94485.59;5013486;28;20283;-82
2023/12/12 07:21:41;;;;;;;1.75;1.60;;;;;;;8.24;83.40;94483.84;5014159;28;20303;-83
2023/12/12 07:24:10;;;;;;;0.60;0.60;;;;;;;8.22;83.45;94480.66;5024972;28;20207;-83
2023/12/12 07:26:37;;;;;;;0.80;0.80;;;;;;;8.53;82.57;94475.94;5013244;28;20217;-82
2023/12/12 07:29:04;;;;;;;0.43;0.43;;;;;;;8.66;82.03;94474.19;5013628;28;20212;-83
2023/12/12 07:31:34;;;;;;;0.30;0.30;;;;;;;8.35;81.69;94482.44;5028616;28;20212;-82
2023/12/12 07:34:00;;;;;;;0.30;0.30;;;;;;;8.32;81.81;94474.22;5032224;28;20211;-84
2023/12/12 07:36:27;;;;;;;1.33;0.98;;;;;;;8.22;82.50;94486.06;5033014;28;20633;-82
2023/12/12 07:39:00;;;;;;;1.35;0.95;;;;;;;8.08;82.91;94480.00;5033020;28;20209;-82
2023/12/12 07:41:27;;;;;;;0.98;0.65;;;;;;;8.11;82.80;94471.28;5015446;28;20207;-79
2023/12/12 07:43:54;;;;;;;2.83;2.28;;;;;;;8.34;82.33;94472.75;5013621;28;20573;-79
2023/12/12 07:46:21;;;;;;;0.98;0.98;;;;;;;8.58;81.71;94474.22;5030694;28;20204;-79
2023/12/12 07:48:49;;;;;;;0.90;0.90;;;;;;;8.80;79.94;94484.81;5021869;28;20212;-78
2023/12/12 07:51:16;;;;;;;1.30;1.20;;;;;;;8.58;80.55;94488.50;5026417;28;20217;-78
2023/12/12 07:53:43;;;;;;;0.75;0.75;;;;;;;8.72;80.05;94488.34;5024786;28;20276;-78
2023/12/12 07:56:10;;;;;;;2.15;0.88;;;;;;;8.96;79.93;94488.63;5015515;28;20540;-79
2023/12/12 07:58:37;;;;;;;1.85;1.10;;;;;;;8.89;78.93;94482.88;5024017;28;20266;-79
2023/12/12 08:01:06;;;;;;;6.05;2.00;;;;;;;9.30;77.64;94478.81;5013820;28;20213;-79
2023/12/12 08:03:33;;;;;;;0.93;0.90;;;;;;;9.51;78.02;94483.22;5023877;28;20250;-79
2023/12/12 08:06:03;;;;;;;1.30;1.25;;;;;;;9.75;77.12;94471.81;5013598;28;20220;-83
2023/12/12 08:08:31;;;;;;;0.63;0.63;;;;;;;9.02;78.10;94471.09;5012349;28;20217;-79
2023/12/12 08:10:58;;;;;;;0.40;0.40;;;;;;;9.31;78.42;94477.72;5012979;28;20271;-80
2023/12/12 08:13:25;;;;;;;1.67;1.58;;;;;;;9.34;78.56;94471.66;4994406;28;20232;-79
2023/12/12 08:15:52;;;;;;;0.73;0.73;;;;;;;9.28;77.99;94473.78;5012008;28;20682;-79
2023/12/12 08:18:18;;;;;;;1.90;1.30;;;;;;;9.36;78.14;94474.84;5011974;28;20662;-78
2023/12/12 08:20:45;;;;;;;0.60;0.60;;;;;;;9.51;77.40;94479.72;5011971;28;20628;-79
2023/12/12 08:23:15;;;;;;;4.50;1.08;;;;;;;9.77;76.34;94461.47;5025001;28;20295;-81
2023/12/12 08:25:41;;;;;;;0.38;0.38;;;;;;;9.86;76.14;94461.41;5031421;28;20208;-79
2023/12/12 08:28:09;;;;;;;2.03;1.92;;;;;;;10.06;75.76;94449.84;5031834;28;20659;-79
2023/12/12 08:30:36;;;;;;;0.85;0.85;;;;;;;10.08;74.46;94457.63;5031410;28;20208;-79
2023/12/12 08:33:03;;;;;;;1.15;1.15;;;;;;;9.46;75.10;94459.06;5031828;28;20567;-79
2023/12/12 08:35:30;;;;;;;0.47;0.47;;;;;;;9.55;75.90;94456.34;5031067;28;20234;-82
2023/12/12 08:37:57;;;;;;;4.60;1.25;;;;;;;9.12;76.63;94459.97;5031717;28;20270;-82
2023/12/12 08:40:25;;;;;;;0.40;0.40;;;;;;;9.00;78.14;94462.56;5024344;28;20197;-78
2023/12/12 08:42:52;;;;;;;0.68;0.68;;;;;;;8.84;78.26;94469.56;5019277;28;20221;-79
2023/12/12 08:45:19;;;;;;;4.13;1.23;;;;;;;8.75;79.04;94468.78;5026182;28;20214;-78
2023/12/12 08:47:45;;;;;;;0.50;0.50;;;;;;;8.74;79.19;94468.00;5020376;28;20223;-77
2023/12/12 08:50:12;;;;;;;0.50;0.50;;;;;;;8.77;79.62;94480.84;5017203;28;20217;-79
2023/12/12 08:52:39;;;;;;;1.42;1.05;;;;;;;8.87;79.54;94474.34;5017936;28;20946;-78
2023/12/12 08:55:10;;;;;;;0.75;0.75;;;;;;;8.89;79.04;94466.69;5016394;28;20323;-78
2023/12/12 08:57:39;;;;;;;1.40;1.33;;;;;;;8.89;78.92;94472.09;5017342;28;20205;-78
2023/12/12 09:00:08;;;;;;;0.57;0.57;;;;;;;8.83;79.23;94468.78;5026385;28;20254;-78
2023/12/12 09:02:35;;;;;;;0.50;0.50;;;;;;;8.88;78.90;94465.13;5034429;28;20583;-77
2023/12/12 09:05:03;;;;;;;0.30;0.30;;;;;;;9.19;78.60;94462.16;5023562;28;20209;-79
2023/12/12 09:07:30;;;;;;;1.38;0.85;;;;;;;9.60;77.01;94464.25;5015285;28;20276;-79
2023/12/12 09:09:57;;;;;;;0.60;0.60;;;;;;;10.05;75.29;94459.09;5015013;28;20224;-79
2023/12/12 09:12:24;;;;;;;0.75;0.75;;;;;;;10.19;73.62;94467.78;5014537;28;20213;-79
2023/12/12 09:14:52;;;;;;;4.45;2.67;;;;;;;10.80;73.21;94459.16;5016388;28;20244;-79
2023/12/12 09:17:19;;;;;;;0.20;0.20;;;;;;;10.81;71.67;94464.25;5015029;28;20232;-78
2023/12/12 09:19:46;;;;;;;0.77;0.77;;;;;;;10.86;71.14;94460.56;5016866;28;20236;-78
2023/12/12 09:22:13;;;;;;;0.47;0.47;;;;;;;10.99;71.14;94454.06;5018650;28;20212;-81
2023/12/12 09:24:40;;;;;;;0.63;0.63;;;;;;;11.09;70.88;94469.88;5018098;28;20275;-78
2023/12/12 09:27:07;;;;;;;0.50;0.43;;;;;;;11.00;70.36;94471.91;5015705;28;20239;-77
2023/12/12 09:29:33;;;;;;;0.68;0.68;;;;;;;11.06;70.79;94470.56;5015599;28;20213;-80
2023/12/12 09:32:01;;;;;;;0.38;0.38;;;;;;;10.71;72.38;94469.28;5016088;28;20629;-78
2023/12/12 09:34:28;;;;;;;0.25;0.25;;;;;;;10.05;73.52;94463.69;5029620;28;20231;-78
2023/12/12 09:36:55;;;;;;;0.30;0.30;;;;;;;10.20;73.40;94466.66;5036908;28;20641;-78
2023/12/12 09:39:23;;;;;;;0.20;0.20;;;;;;;10.30;73.21;94451.94;5033919;28;20205;-78
2023/12/12 09:41:53;;;;;;;0.60;0.60;;;;;;;10.25;74.45;94452.16;5034468;28;20208;-77
2023/12/12 09:44:21;;;;;;;0.40;0.40;;;;;;;10.86;73.55;94445.09;5020517;28;20201;-78
2023/12/12 09:46:49;;;;;;;0.77;0.68;;;;;;;11.46;71.19;94445.59;5015889;28;20201;-79
2023/12/12 09:49:20;;;;;;;0.30;0.30;;;;;;;11.83;69.93;94441.00;5028256;28;20224;-79
2023/12/12 09:52:10;;;;;;;0.30;0.30;;;;;;;12.27;68.34;94441.97;5024473;28;20315;-79
2023/12/12 09:54:38;;;;;;;5.38;1.55;;;;;;;12.71;65.74;94435.50;5029867;28;20315;-79
2023/12/12 09:57:06;;;;;;;0.90;0.75;;;;;;;12.46;66.13;94434.00;5037615;28;20192;-79
2023/12/12 09:59:33;;;;;;;4.57;2.70;;;;;;;12.43;66.69;94430.06;5025818;28;20212;-79
2023/12/12 10:02:00;;;;;;;2.05;1.88;;;;;;;12.07;67.31;94425.47;5021592;28;20219;-77
2023/12/12 10:04:28;;;;;;;1.10;1.10;;;;;;;12.21;67.54;94432.47;5029184;28;20541;-78
2023/12/12 10:07:00;;;;;;;1.08;0.90;;;;;;;11.97;66.92;94420.50;5040386;28;20212;-80
2023/12/12 10:09:31;;;;;;;0.82;0.82;;;;;;;12.20;67.77;94431.66;5026868;28;20215;-79
2023/12/12 10:11:58;;;;;;;0.30;0.30;;;;;;;12.19;67.00;94413.78;5027016;28;20240;-79
2023/12/12 10:14:44;;;;;;;0.30;0.30;;;;;;;12.07;66.67;94428.19;5019866;28;20232;-78
2023/12/12 10:17:12;;;;;;;0.20;0.20;;;;;;;12.24;66.08;94431.78;5018871;28;20204;-79
2023/12/12 10:19:40;;;;;;;0.20;0.20;;;;;;;11.78;66.17;94414.84;5018014;28;20208;-79
2023/12/12 10:22:09;;;;;;;0.20;0.20;;;;;;;11.86;66.85;94427.53;5036941;28;20230;-77
2023/12/12 10:24:36;;;;;;;0.20;0.20;;;;;;;12.07;66.69;94428.19;5028428;28;20224;-79
2023/12/12 10:27:04;;;;;;;0.20;0.20;;;;;;;12.10;66.39;94432.94;5019049;28;20624;-78
2023/12/12 10:29:32;;;;;;;1.38;0.63;;;;;;;12.22;65.69;94440.28;5029485;28;20549;-78
2023/12/12 10:32:00;;;;;;;0.40;0.40;;;;;;;12.14;66.77;94443.13;5021527;28;20208;-78
2023/12/12 10:34:27;;;;;;;0.25;0.25;;;;;;;12.09;66.18;94441.41;5045506;28;20582;-78
2023/12/12 10:36:58;;;;;;;0.20;0.20;;;;;;;11.77;67.13;94435.00;5016538;28;20208;-79
2023/12/12 10:39:30;;;;;;;0.52;0.52;;;;;;;12.19;66.98;94429.28;5029561;28;20231;-78
2023/12/12 10:41:57;;;;;;;0.63;0.40;;;;;;;11.81;66.56;94435.91;5013909;28;20201;-79
2023/12/12 10:44:31;;;;;;;0.30;0.30;;;;;;;11.93;66.99;94422.31;5013499;28;20208;-79
2023/12/12 10:46:59;;;;;;;0.20;0.20;;;;;;;11.91;67.30;94423.78;5013687;28;20213;-78
2023/12/12 10:49:30;;;;;;;0.80;0.80;;;;;;;11.96;66.86;94420.84;5013976;28;20244;-78
2023/12/12 10:52:01;;;;;;;0.60;0.55;;;;;;;12.00;67.25;94438.06;4995634;28;20260;-79
2023/12/12 10:54:33;;;;;;;1.83;1.67;;;;;;;11.54;68.51;94441.97;5013225;28;20253;-78
2023/12/12 10:57:04;;;;;;;0.20;0.20;;;;;;;11.44;69.60;94453.25;5013336;28;20284;-79
2023/12/12 10:59:32;;;;;;;0.15;0.15;;;;;;;11.29;70.33;94449.28;5013819;28;20288;-78
2023/12/12 11:02:00;;;;;;;0.20;0.20;;;;;;;11.18;70.48;94440.00;5013457;28;20275;-79
2023/12/12 11:04:27;;;;;;;0.20;0.20;;;;;;;11.11;71.05;94445.16;5026053;28;20204;-80
2023/12/12 11:06:55;;;;;;;0.20;0.20;;;;;;;10.85;71.08;94456.25;5013140;28;20284;-77
2023/12/12 11:09:26;;;;;;;1.40;0.73;;;;;;;10.81;72.09;94458.03;5018863;28;20577;-78
2023/12/12 11:11:54;;;;;;;1.58;1.48;;;;;;;10.82;72.42;94448.78;5032794;28;20204;-79
2023/12/12 11:14:24;;;;;;;0.85;0.70;;;;;;;10.85;72.02;94451.63;5033046;28;20315;-80
2023/12/12 11:16:54;;;;;;;3.58;1.50;;;;;;;11.01;71.30;94449.09;5032249;28;20670;-81
2023/12/12 11:19:25;;;;;;;1.55;0.70;;;;;;;11.00;72.12;94450.22;5032926;28;20212;-77
2023/12/12 11:21:52;;;;;;;0.40;0.40;;;;;;;10.78;72.26;94454.09;5032391;28;20215;-75
2023/12/12 11:24:20;;;;;;;0.20;0.20;;;;;;;10.89;72.24;94447.13;5032473;28;20224;-78
2023/12/12 11:26:50;;;;;;;0.68;0.68;;;;;;;10.87;72.35;94435.03;5029510;28;20232;-78
2023/12/12 11:29:18;;;;;;;2.30;1.30;;;;;;;11.14;71.93;94429.03;5012836;28;20224;-77
2023/12/12 11:31:58;;;;;;;0.30;0.30;;;;;;;11.16;72.52;94432.19;5012517;28;20236;-79
2023/12/12 11:34:25;;;;;;;0.30;0.30;;;;;;;11.09;72.48;94431.16;5025671;28;20227;-78
2023/12/12 11:36:54;;;;;;;0.20;0.20;;;;;;;11.19;72.27;94428.81;5012556;28;20209;-79
2023/12/12 11:39:26;;;;;;;0.30;0.30;;;;;;;11.53;72.32;94429.53;5020114;28;20573;-78